createdAt,value
2022-08-26T00:00:19.946Z,9.80
2022-08-26T00:03:03.847Z,10.80
2022-08-26T00:05:32.332Z,10.40
2022-08-26T00:08:00.590Z,10.10
2022-08-26T00:10:29.031Z,10.10
2022-08-26T00:12:57.344Z,10.80
2022-08-26T00:15:26.441Z,9.60
2022-08-26T00:17:56.462Z,11.20
2022-08-26T00:20:29.090Z,10.80
2022-08-26T00:22:58.180Z,11.80
2022-08-26T00:25:27.278Z,10.90
2022-08-26T00:27:56.241Z,10.40
2022-08-26T00:30:28.234Z,10.30
2022-08-26T00:32:58.020Z,10.60
2022-08-26T00:35:27.951Z,11.20
2022-08-26T00:37:57.312Z,10.30
2022-08-26T00:40:35.729Z,10.10
2022-08-26T00:43:09.279Z,9.90
2022-08-26T00:45:47.561Z,9.70
2022-08-26T00:48:20.045Z,10.00
2022-08-26T00:50:57.853Z,9.10
2022-08-26T00:53:31.147Z,10.00
2022-08-26T00:56:17.248Z,10.10
2022-08-26T00:58:48.264Z,10.00
2022-08-26T01:01:18.394Z,9.60
2022-08-26T01:03:52.216Z,9.70
2022-08-26T01:06:21.232Z,9.20
2022-08-26T01:08:49.594Z,9.60
2022-08-26T01:11:26.474Z,10.20
2022-08-26T01:13:59.045Z,9.60
2022-08-26T01:16:27.698Z,9.00
2022-08-26T01:19:11.155Z,9.50
2022-08-26T01:22:03.865Z,10.00
2022-08-26T01:24:32.358Z,9.60
2022-08-26T01:27:08.738Z,9.50
2022-08-26T01:30:30.540Z,9.20
2022-08-26T01:33:01.635Z,10.30
2022-08-26T01:35:30.763Z,9.90
2022-08-26T01:38:00.793Z,10.30
2022-08-26T01:40:37.311Z,9.70
2022-08-26T01:43:09.054Z,9.10
2022-08-26T01:45:40.664Z,10.40
2022-08-26T01:48:15.110Z,9.40
2022-08-26T01:50:45.628Z,9.30
2022-08-26T01:53:18.359Z,9.20
2022-08-26T01:55:53.438Z,8.90
2022-08-26T01:58:30.363Z,7.90
2022-08-26T02:00:59.402Z,9.40
2022-08-26T02:03:29.063Z,8.40
2022-08-26T02:06:02.023Z,8.40
2022-08-26T02:08:41.473Z,8.70
2022-08-26T02:11:11.270Z,8.30
2022-08-26T02:13:49.189Z,8.10
2022-08-26T02:16:21.939Z,8.70
2022-08-26T02:18:53.382Z,8.90
2022-08-26T02:21:22.100Z,8.70
2022-08-26T02:23:56.167Z,8.10
2022-08-26T02:26:27.102Z,8.30
2022-08-26T02:29:05.562Z,8.50
2022-08-26T02:31:35.942Z,8.10
2022-08-26T02:34:10.739Z,9.50
2022-08-26T02:36:40.110Z,8.40
2022-08-26T02:39:09.475Z,8.20
2022-08-26T02:41:44.981Z,8.10
2022-08-26T02:44:13.966Z,8.50
2022-08-26T02:46:46.840Z,7.80
2022-08-26T02:49:17.092Z,8.60
2022-08-26T02:51:49.739Z,8.70
2022-08-26T02:54:23.879Z,8.40
2022-08-26T02:56:52.544Z,9.20
2022-08-26T02:59:20.886Z,8.50
2022-08-26T03:01:56.107Z,9.30
2022-08-26T03:04:25.952Z,8.40
2022-08-26T03:06:55.584Z,7.80
2022-08-26T03:09:24.711Z,8.60
2022-08-26T03:11:53.218Z,8.30
2022-08-26T03:14:24.093Z,8.80
2022-08-26T03:16:54.639Z,9.10
2022-08-26T03:19:24.960Z,8.30
2022-08-26T03:21:57.692Z,7.90
2022-08-26T03:24:26.827Z,7.50
2022-08-26T03:26:55.271Z,8.50
2022-08-26T03:29:42.428Z,8.30
2022-08-26T03:32:12.122Z,7.70
2022-08-26T03:34:40.669Z,7.90
2022-08-26T03:37:09.077Z,7.90
2022-08-26T03:39:38.122Z,8.20
2022-08-26T03:42:06.664Z,8.30
2022-08-26T03:44:37.602Z,8.40
2022-08-26T03:47:10.786Z,7.90
2022-08-26T03:49:39.460Z,8.30
2022-08-26T03:52:07.842Z,8.20
2022-08-26T03:54:36.370Z,7.50
2022-08-26T03:57:04.811Z,7.80
2022-08-26T03:59:33.386Z,7.90
2022-08-26T04:02:01.930Z,7.40
2022-08-26T04:04:30.724Z,8.00
2022-08-26T04:06:59.886Z,8.10
2022-08-26T04:09:28.302Z,6.80
2022-08-26T04:11:58.757Z,7.60
2022-08-26T04:14:27.926Z,7.70
2022-08-26T04:16:56.970Z,7.90
2022-08-26T04:19:27.386Z,8.40
2022-08-26T04:21:55.711Z,8.10
2022-08-26T04:24:26.719Z,7.50
2022-08-26T04:26:56.811Z,8.30
2022-08-26T04:29:26.919Z,8.80
2022-08-26T04:31:56.366Z,7.90
2022-08-26T04:34:28.656Z,8.60
2022-08-26T04:36:58.761Z,7.70
2022-08-26T04:39:28.069Z,8.40
2022-08-26T04:41:57.766Z,8.30
2022-08-26T04:44:29.765Z,8.20
2022-08-26T04:46:58.753Z,8.70
2022-08-26T04:49:27.994Z,8.60
2022-08-26T04:52:05.372Z,9.50
2022-08-26T04:54:33.747Z,8.20
2022-08-26T04:57:02.636Z,9.10
2022-08-26T04:59:30.874Z,9.10
2022-08-26T05:02:00.977Z,9.80
2022-08-26T05:04:30.452Z,9.80
2022-08-26T05:07:02.942Z,9.90
2022-08-26T05:09:31.544Z,10.80
2022-08-26T05:11:59.814Z,10.30
2022-08-26T05:14:28.218Z,9.70
2022-08-26T05:16:56.594Z,10.40
2022-08-26T05:19:25.414Z,10.70
2022-08-26T05:21:56.364Z,9.90
2022-08-26T05:24:24.945Z,11.00
2022-08-26T05:26:53.391Z,11.90
2022-08-26T05:29:21.740Z,11.70
2022-08-26T05:31:52.451Z,11.40
2022-08-26T05:34:23.514Z,10.70
2022-08-26T05:36:56.517Z,10.50
2022-08-26T05:39:24.873Z,11.80
2022-08-26T05:41:53.105Z,13.00
2022-08-26T05:44:22.440Z,12.40
2022-08-26T05:46:51.933Z,14.80
2022-08-26T05:49:20.492Z,12.50
2022-08-26T05:51:51.063Z,14.70
2022-08-26T05:54:22.289Z,13.30
2022-08-26T05:56:52.019Z,13.40
2022-08-26T05:59:24.192Z,14.50
2022-08-26T06:01:55.175Z,13.50
2022-08-26T06:04:27.498Z,15.00
2022-08-26T06:06:57.813Z,14.00
2022-08-26T06:09:27.091Z,14.30
2022-08-26T06:11:56.173Z,14.90
2022-08-26T06:14:26.599Z,14.10
2022-08-26T06:16:55.076Z,14.00
2022-08-26T06:19:23.918Z,13.30
2022-08-26T06:21:54.138Z,13.30
2022-08-26T06:24:41.923Z,12.80
2022-08-26T06:27:13.878Z,14.10
2022-08-26T06:29:43.646Z,13.90
2022-08-26T06:32:12.086Z,13.50
2022-08-26T06:34:40.466Z,14.50
2022-08-26T06:37:09.990Z,13.90
2022-08-26T06:39:41.266Z,13.60
2022-08-26T06:42:11.074Z,12.90
2022-08-26T06:44:41.858Z,12.20
2022-08-26T06:47:13.199Z,12.90
2022-08-26T06:49:41.886Z,12.30
2022-08-26T06:52:12.562Z,13.20
2022-08-26T06:54:44.262Z,12.70
2022-08-26T06:57:14.308Z,11.20
2022-08-26T06:59:45.533Z,11.60
2022-08-26T07:02:14.923Z,11.80
2022-08-26T07:04:44.547Z,11.50
2022-08-26T07:07:16.410Z,11.60
2022-08-26T07:09:44.727Z,11.40
2022-08-26T07:12:12.994Z,12.10
2022-08-26T07:14:43.785Z,11.80
2022-08-26T07:17:16.349Z,12.00
2022-08-26T07:19:45.271Z,12.70
2022-08-26T07:22:14.000Z,12.90
2022-08-26T07:24:42.676Z,11.10
2022-08-26T07:27:18.476Z,10.50
2022-08-26T07:32:17.209Z,10.90
2022-08-26T07:34:46.321Z,10.60
2022-08-26T07:37:14.662Z,9.60
2022-08-26T07:39:44.654Z,10.10
2022-08-26T07:42:15.047Z,8.80
2022-08-26T07:44:44.083Z,9.10
2022-08-26T07:47:25.884Z,9.40
2022-08-26T07:49:57.632Z,9.50
2022-08-26T07:52:29.019Z,8.90
2022-08-26T07:55:00.756Z,8.60
2022-08-26T07:57:30.568Z,9.40
2022-08-26T07:59:59.696Z,9.30
2022-08-26T08:02:29.910Z,8.80
2022-08-26T08:04:58.555Z,8.70
2022-08-26T08:07:44.479Z,8.70
2022-08-26T08:10:17.992Z,8.60
2022-08-26T08:12:48.526Z,9.00
2022-08-26T08:15:20.237Z,7.90
2022-08-26T08:17:50.498Z,7.70
2022-08-26T08:20:22.327Z,7.80
2022-08-26T08:22:52.749Z,6.90
2022-08-26T08:25:23.419Z,6.30
2022-08-26T08:27:51.750Z,6.10
2022-08-26T08:30:23.121Z,5.60
2022-08-26T08:32:52.672Z,6.20
2022-08-26T08:35:22.747Z,6.70
2022-08-26T08:37:54.511Z,5.30
2022-08-26T08:40:26.215Z,5.90
2022-08-26T08:43:40.345Z,5.40
2022-08-26T08:46:15.401Z,6.70
2022-08-26T08:48:48.589Z,6.60
2022-08-26T08:51:54.472Z,7.50
2022-08-26T08:54:26.653Z,5.80
2022-08-26T08:57:15.821Z,6.80
2022-08-26T08:59:59.986Z,6.60
2022-08-26T09:02:48.357Z,6.40
2022-08-26T09:05:28.665Z,6.10
2022-08-26T09:08:06.589Z,6.50
2022-08-26T09:10:47.253Z,6.20
2022-08-26T09:13:25.308Z,6.00
2022-08-26T09:16:06.834Z,6.30
2022-08-26T09:18:53.203Z,5.90
2022-08-26T09:21:25.275Z,5.60
2022-08-26T09:23:56.627Z,5.70
2022-08-26T09:26:41.246Z,6.90
2022-08-26T09:31:46.730Z,6.40
2022-08-26T09:34:17.447Z,6.30
2022-08-26T09:36:59.595Z,6.40
2022-08-26T09:39:29.779Z,6.80
2022-08-26T09:42:10.410Z,6.60
2022-08-26T09:44:57.259Z,6.00
2022-08-26T09:47:33.154Z,6.80
2022-08-26T09:50:36.139Z,6.70
2022-08-26T09:53:16.240Z,6.10
2022-08-26T09:55:47.836Z,6.10
2022-08-26T09:58:33.879Z,6.70
2022-08-26T10:01:05.868Z,5.60
2022-08-26T10:03:39.630Z,5.80
2022-08-26T10:06:23.520Z,5.40
2022-08-26T10:08:57.288Z,4.60
2022-08-26T10:11:53.683Z,5.40
2022-08-26T10:14:31.065Z,5.20
2022-08-26T10:17:07.670Z,4.90
2022-08-26T10:19:55.884Z,5.90
2022-08-26T10:23:01.218Z,5.30
2022-08-26T10:25:34.529Z,4.60
2022-08-26T10:28:12.344Z,4.60
2022-08-26T10:30:47.063Z,5.20
2022-08-26T10:33:18.184Z,4.60
2022-08-26T10:35:55.202Z,5.10
2022-08-26T10:38:32.651Z,4.50
2022-08-26T10:41:13.241Z,4.60
2022-08-26T10:43:50.989Z,4.80
2022-08-26T10:46:27.443Z,4.50
2022-08-26T10:49:00.074Z,4.20
2022-08-26T10:51:38.791Z,4.80
2022-08-26T10:54:10.032Z,4.40
2022-08-26T10:57:12.481Z,4.50
2022-08-26T10:59:57.531Z,4.20
2022-08-26T11:02:47.154Z,4.00
2022-08-26T11:05:20.173Z,4.00
2022-08-26T11:07:56.294Z,4.80
2022-08-26T11:10:25.378Z,4.30
2022-08-26T11:12:58.238Z,4.60
2022-08-26T11:15:28.337Z,3.60
2022-08-26T11:18:05.225Z,3.70
2022-08-26T11:20:42.079Z,4.40
2022-08-26T11:23:13.554Z,3.60
2022-08-26T11:26:09.600Z,4.00
2022-08-26T11:28:51.661Z,3.80
2022-08-26T11:31:26.833Z,4.40
2022-08-26T11:34:03.548Z,3.60
2022-08-26T11:36:37.868Z,4.00
2022-08-26T11:39:30.752Z,4.40
2022-08-26T11:42:16.376Z,4.00
2022-08-26T11:44:49.593Z,4.00
2022-08-26T11:47:28.879Z,4.00
2022-08-26T11:50:08.675Z,3.80
2022-08-26T11:52:37.030Z,4.40
2022-08-26T11:55:12.189Z,4.30
2022-08-26T11:58:02.290Z,4.00
2022-08-26T12:00:49.720Z,3.10
2022-08-26T12:03:24.081Z,3.60
2022-08-26T12:05:53.829Z,3.80
2022-08-26T12:08:27.889Z,3.40
2022-08-26T12:11:09.751Z,4.10
2022-08-26T12:13:39.375Z,3.30
2022-08-26T12:16:08.127Z,4.00
2022-08-26T12:18:38.964Z,3.30
2022-08-26T12:21:22.501Z,3.70
2022-08-26T12:23:55.361Z,3.90
2022-08-26T12:26:31.732Z,4.30
2022-08-26T12:29:12.823Z,4.20
2022-08-26T12:31:49.864Z,3.70
2022-08-26T12:34:18.755Z,4.20
2022-08-26T12:36:55.840Z,3.70
2022-08-26T12:39:39.080Z,3.70
2022-08-26T12:42:13.429Z,3.50
2022-08-26T12:45:04.496Z,3.90
2022-08-26T12:47:42.574Z,3.60
2022-08-26T12:50:19.821Z,3.50
2022-08-26T12:53:03.217Z,3.80
2022-08-26T12:55:42.761Z,3.90
2022-08-26T12:58:13.797Z,3.50
2022-08-26T13:00:49.576Z,3.70
2022-08-26T13:03:45.575Z,3.40
2022-08-26T13:06:23.073Z,3.70
2022-08-26T13:09:20.984Z,3.70
2022-08-26T13:11:49.373Z,3.70
2022-08-26T13:14:23.748Z,4.30
2022-08-26T13:16:53.934Z,3.40
2022-08-26T13:19:29.694Z,3.20
2022-08-26T13:22:00.615Z,3.60
2022-08-26T13:24:54.937Z,3.60
2022-08-26T13:27:28.243Z,4.10
2022-08-26T13:29:58.112Z,3.50
2022-08-26T13:32:27.992Z,3.70
2022-08-26T13:34:57.827Z,3.00
2022-08-26T13:37:34.281Z,3.50
2022-08-26T13:40:07.440Z,3.90
2022-08-26T13:42:35.830Z,3.70
2022-08-26T13:45:05.346Z,3.70
2022-08-26T13:47:33.836Z,4.10
2022-08-26T13:50:03.101Z,3.50
2022-08-26T13:52:31.512Z,3.40
2022-08-26T13:55:00.798Z,3.40
2022-08-26T13:57:30.488Z,3.70
2022-08-26T13:59:59.645Z,3.80
2022-08-26T14:02:28.508Z,3.90
2022-08-26T14:04:57.028Z,4.30
2022-08-26T14:07:25.375Z,3.40
2022-08-26T14:09:53.877Z,4.00
2022-08-26T14:12:22.413Z,4.10
2022-08-26T14:14:51.306Z,3.70
2022-08-26T14:17:22.973Z,4.40
2022-08-26T14:19:51.442Z,4.00
2022-08-26T14:22:22.232Z,3.60
2022-08-26T14:24:50.949Z,4.00
2022-08-26T14:27:19.409Z,4.30
2022-08-26T14:29:47.995Z,3.90
2022-08-26T14:32:26.129Z,4.00
2022-08-26T14:34:55.726Z,4.00
2022-08-26T14:37:24.704Z,4.50
2022-08-26T14:39:53.634Z,4.10
2022-08-26T14:42:31.462Z,4.40
2022-08-26T14:45:03.269Z,3.90
2022-08-26T14:47:32.077Z,4.30
2022-08-26T14:50:00.737Z,4.10
2022-08-26T14:52:29.886Z,4.30
2022-08-26T14:54:58.352Z,4.30
2022-08-26T14:57:26.613Z,4.20
2022-08-26T14:59:54.988Z,4.30
2022-08-26T15:02:33.456Z,4.20
2022-08-26T15:05:03.090Z,3.90
2022-08-26T15:07:31.958Z,4.10
2022-08-26T15:10:00.561Z,4.00
2022-08-26T15:12:28.836Z,3.80
2022-08-26T15:14:57.388Z,4.30
2022-08-26T15:17:26.394Z,4.10
2022-08-26T15:19:54.798Z,4.10
2022-08-26T15:22:23.398Z,4.10
2022-08-26T15:24:53.832Z,4.40
2022-08-26T15:27:22.412Z,4.10
2022-08-26T15:29:51.009Z,3.80
2022-08-26T15:32:19.378Z,3.90
2022-08-26T15:34:49.620Z,4.10
2022-08-26T15:37:18.121Z,4.00
2022-08-26T15:39:46.546Z,4.10
2022-08-26T15:42:15.593Z,4.50
2022-08-26T15:44:45.595Z,4.40
2022-08-26T15:47:14.009Z,4.10
2022-08-26T15:49:42.610Z,3.90
2022-08-26T15:52:10.975Z,4.10
2022-08-26T15:54:39.832Z,4.30
2022-08-26T15:57:11.496Z,4.00
2022-08-26T15:59:40.945Z,4.30
2022-08-26T16:02:09.809Z,4.40
2022-08-26T16:04:38.250Z,4.00
2022-08-26T16:07:06.778Z,4.10
2022-08-26T16:09:35.062Z,4.20
2022-08-26T16:12:03.790Z,4.30
2022-08-26T16:14:32.284Z,4.30
2022-08-26T16:17:00.708Z,4.50
2022-08-26T16:19:29.380Z,3.90
2022-08-26T16:21:57.801Z,4.00
2022-08-26T16:24:30.169Z,4.10
2022-08-26T16:26:59.229Z,4.90
2022-08-26T16:29:28.637Z,5.00
2022-08-26T16:31:56.933Z,5.00
2022-08-26T16:34:25.382Z,4.70
2022-08-26T16:36:53.749Z,5.70
2022-08-26T16:39:22.074Z,4.60
2022-08-26T16:41:50.561Z,5.50
2022-08-26T16:44:19.412Z,5.40
2022-08-26T16:46:48.465Z,5.80
2022-08-26T16:49:16.937Z,5.60
2022-08-26T16:51:45.482Z,5.70
2022-08-26T16:54:13.821Z,5.60
2022-08-26T16:56:42.262Z,5.60
2022-08-26T16:59:11.851Z,4.90
2022-08-26T17:01:40.388Z,4.90
2022-08-26T17:04:08.900Z,5.00
2022-08-26T17:06:37.206Z,4.90
2022-08-26T17:09:05.765Z,4.40
2022-08-26T17:11:35.535Z,4.60
2022-08-26T17:14:05.512Z,4.70
2022-08-26T17:16:34.401Z,4.60
2022-08-26T17:19:04.654Z,5.00
2022-08-26T17:21:35.038Z,6.00
2022-08-26T17:24:05.169Z,8.60
2022-08-26T17:26:34.134Z,8.40
2022-08-26T17:29:02.366Z,9.00
2022-08-26T17:31:32.137Z,7.10
2022-08-26T17:34:00.762Z,7.00
2022-08-26T17:36:29.419Z,7.20
2022-08-26T17:38:58.696Z,6.70
2022-08-26T17:41:28.150Z,7.20
2022-08-26T17:43:56.538Z,7.20
2022-08-26T17:46:25.097Z,7.30
2022-08-26T17:48:53.410Z,8.00
2022-08-26T17:51:23.044Z,7.80
2022-08-26T17:53:52.081Z,8.30
2022-08-26T17:56:26.899Z,7.80
2022-08-26T17:58:58.045Z,7.50
2022-08-26T18:01:32.077Z,7.60
2022-08-26T18:04:00.985Z,8.70
2022-08-26T18:06:30.864Z,8.50
2022-08-26T18:09:00.826Z,8.20
2022-08-26T18:11:30.244Z,8.20
2022-08-26T18:13:59.403Z,7.90
2022-08-26T18:16:29.975Z,7.90
2022-08-26T18:18:58.542Z,8.70
2022-08-26T18:21:27.877Z,7.50
2022-08-26T18:23:56.442Z,8.70
2022-08-26T18:26:29.150Z,8.80
2022-08-26T18:28:58.130Z,9.10
2022-08-26T18:31:27.017Z,9.20
2022-08-26T18:33:56.075Z,9.20
2022-08-26T18:36:33.877Z,10.00
2022-08-26T18:39:04.346Z,9.40
2022-08-26T18:41:38.625Z,10.10
2022-08-26T18:44:09.484Z,8.50
2022-08-26T18:46:40.564Z,9.70
2022-08-26T18:49:11.394Z,9.80
2022-08-26T18:51:40.176Z,9.00
2022-08-26T18:54:09.191Z,9.50
2022-08-26T18:56:39.513Z,10.20
2022-08-26T18:59:08.456Z,8.70
2022-08-26T19:01:38.232Z,9.30
2022-08-26T19:04:08.628Z,11.10
2022-08-26T19:06:45.664Z,13.20
2022-08-26T19:09:15.323Z,10.30
2022-08-26T19:11:49.686Z,9.50
2022-08-26T19:14:18.914Z,9.40
2022-08-26T19:16:49.673Z,9.10
2022-08-26T19:19:19.839Z,9.20
2022-08-26T19:21:48.288Z,9.10
2022-08-26T19:24:18.285Z,9.00
2022-08-26T19:26:57.653Z,8.80
2022-08-26T19:29:33.951Z,7.70
2022-08-26T19:32:03.473Z,8.50
2022-08-26T19:34:32.475Z,7.80
2022-08-26T19:37:00.743Z,7.50
2022-08-26T19:39:29.309Z,8.50
2022-08-26T19:41:57.682Z,8.20
2022-08-26T19:44:44.774Z,8.40
2022-08-26T19:47:14.209Z,8.10
2022-08-26T19:49:42.925Z,8.10
2022-08-26T19:52:11.566Z,8.30
2022-08-26T19:54:40.510Z,7.80
2022-08-26T19:57:08.817Z,7.90
2022-08-26T19:59:37.026Z,7.80
2022-08-26T20:02:10.129Z,7.90
2022-08-26T20:04:39.960Z,8.10
2022-08-26T20:07:09.251Z,7.40
2022-08-26T20:09:37.746Z,8.00
2022-08-26T20:12:07.043Z,8.10
2022-08-26T20:14:36.066Z,6.90
2022-08-26T20:17:06.325Z,7.90
2022-08-26T20:19:53.951Z,8.00
2022-08-26T20:22:22.760Z,8.00
2022-08-26T20:24:51.877Z,7.80
2022-08-26T20:27:22.508Z,8.30
2022-08-26T20:29:50.859Z,8.00
2022-08-26T20:32:20.088Z,8.90
2022-08-26T20:34:49.610Z,8.60
2022-08-26T20:37:21.448Z,8.80
2022-08-26T20:39:55.477Z,9.00
2022-08-26T20:42:23.866Z,8.30
2022-08-26T20:44:55.029Z,8.10
2022-08-26T20:47:26.511Z,7.80
2022-08-26T20:49:57.644Z,8.80
2022-08-26T20:52:26.107Z,8.40
2022-08-26T20:54:54.418Z,8.80
2022-08-26T20:57:22.784Z,9.10
2022-08-26T20:59:51.284Z,8.20
2022-08-26T21:02:19.751Z,7.80
2022-08-26T21:04:48.086Z,7.90
2022-08-26T21:07:16.470Z,8.10
2022-08-26T21:09:46.269Z,7.50
2022-08-26T21:12:14.548Z,8.90
2022-08-26T21:14:46.635Z,7.40
2022-08-26T21:17:17.652Z,7.40
2022-08-26T21:19:45.985Z,7.30
2022-08-26T21:22:14.297Z,8.40
2022-08-26T21:24:42.573Z,8.50
2022-08-26T21:27:11.348Z,9.00
2022-08-26T21:29:39.785Z,9.50
2022-08-26T21:32:08.512Z,9.60
2022-08-26T21:34:40.771Z,9.60
2022-08-26T21:37:15.348Z,8.80
2022-08-26T21:39:45.463Z,8.90
2022-08-26T21:42:13.717Z,9.80
2022-08-26T21:44:42.994Z,9.10
2022-08-26T21:47:13.932Z,9.70
2022-08-26T21:49:44.261Z,11.30
2022-08-26T21:52:12.718Z,11.70
2022-08-26T21:54:40.977Z,11.50
2022-08-26T21:57:18.529Z,12.00
2022-08-26T21:59:46.861Z,10.00
2022-08-26T22:02:15.954Z,9.60
2022-08-26T22:04:48.602Z,9.70
2022-08-26T22:07:20.002Z,9.50
2022-08-26T22:09:49.497Z,9.60
2022-08-26T22:12:18.509Z,11.70
2022-08-26T22:14:47.264Z,9.60
2022-08-26T22:17:16.173Z,11.80
2022-08-26T22:19:46.272Z,14.20
2022-08-26T22:22:15.763Z,15.40
2022-08-26T22:24:44.180Z,16.20
2022-08-26T22:27:13.569Z,13.10
2022-08-26T22:29:42.061Z,14.30
2022-08-26T22:32:10.553Z,13.60
2022-08-26T22:34:39.016Z,14.20
2022-08-26T22:37:07.843Z,14.80
2022-08-26T22:39:36.246Z,16.10
2022-08-26T22:42:04.889Z,15.60
2022-08-26T22:44:33.316Z,15.10
2022-08-26T22:47:01.685Z,15.00
2022-08-26T22:49:30.092Z,12.70
2022-08-26T22:51:58.406Z,12.60
2022-08-26T22:54:26.885Z,12.70
2022-08-26T22:56:56.048Z,12.10
2022-08-26T22:59:24.740Z,11.50
2022-08-26T23:01:53.371Z,12.10
2022-08-26T23:04:21.803Z,12.30
2022-08-26T23:06:50.355Z,12.00
2022-08-26T23:09:18.985Z,12.20
2022-08-26T23:11:48.755Z,13.00
2022-08-26T23:14:18.688Z,12.30
2022-08-26T23:16:47.866Z,11.40
2022-08-26T23:19:21.855Z,12.50
2022-08-26T23:21:50.943Z,10.90
2022-08-26T23:24:19.496Z,12.30
2022-08-26T23:26:47.774Z,11.30
2022-08-26T23:29:16.139Z,11.80
2022-08-26T23:31:44.985Z,11.60
2022-08-26T23:34:32.886Z,11.00
2022-08-26T23:37:02.001Z,12.50
2022-08-26T23:39:33.113Z,11.10
2022-08-26T23:42:01.871Z,11.70
2022-08-26T23:44:31.504Z,11.00
2022-08-26T23:47:00.931Z,10.70
2022-08-26T23:49:29.503Z,10.80
2022-08-26T23:52:16.921Z,11.10
2022-08-26T23:54:47.855Z,10.70
2022-08-26T23:57:18.458Z,9.30
2022-08-26T23:59:48.725Z,10.60
